Time;durP1;ratioP1;P1;durP2;ratioP2;P2;SDS_P1;SDS_P2;PMS_P1;PMS_P2;Temp;Humidity;BMP_temperature;BMP_pressure;BME280_temperature;BME280_humidity;BME280_pressure;Samples;Min_cycle;Max_cycle;Signal;HPM_P1;HPM_P2
2021/08/09 00:00:56;;;;;;;3.22;2.15;;;14.90;99.90;;;;;;5048243;28;20029;-48
2021/08/09 00:03:21;;;;;;;6.13;2.40;;;14.90;99.90;;;;;;5047741;28;20017;-50
2021/08/09 00:05:47;;;;;;;4.78;2.55;;;14.90;99.90;;;;;;5048182;28;20029;-47
2021/08/09 00:08:13;;;;;;;4.70;2.10;;;14.80;99.90;;;;;;5048207;28;20025;-48
2021/08/09 00:10:38;;;;;;;6.28;2.55;;;14.90;99.90;;;;;;5048099;28;20450;-49
2021/08/09 00:13:04;;;;;;;6.00;2.28;;;14.90;99.90;;;;;;5046724;28;20475;-49
2021/08/09 00:15:29;;;;;;;3.95;2.70;;;14.90;99.90;;;;;;5047547;28;20036;-47
2021/08/09 00:17:55;;;;;;;4.80;2.40;;;14.90;99.90;;;;;;5048050;28;20022;-47
2021/08/09 00:20:21;;;;;;;9.35;2.58;;;14.90;99.90;;;;;;5048159;28;20064;-48
2021/08/09 00:22:47;;;;;;;5.38;2.58;;;14.80;99.90;;;;;;5046969;28;20502;-47
2021/08/09 00:25:14;;;;;;;8.07;2.67;;;14.80;99.90;;;;;;5047330;28;20056;-48
2021/08/09 00:27:39;;;;;;;5.00;2.40;;;14.90;99.90;;;;;;5048046;28;20039;-50
2021/08/09 00:30:07;;;;;;;4.72;2.35;;;14.80;99.90;;;;;;5046766;28;20495;-48
2021/08/09 00:32:32;;;;;;;5.65;2.53;;;14.80;99.90;;;;;;5048254;28;20021;-47
2021/08/09 00:34:58;;;;;;;5.68;2.20;;;14.80;99.90;;;;;;5047488;28;20025;-47
2021/08/09 00:37:23;;;;;;;2.67;2.10;;;14.80;99.90;;;;;;5048107;28;20033;-49
2021/08/09 00:39:49;;;;;;;3.78;2.42;;;14.80;99.90;;;;;;5048178;28;20029;-47
2021/08/09 00:42:15;;;;;;;3.33;2.22;;;14.70;99.90;;;;;;5048317;28;20036;-48
2021/08/09 00:44:41;;;;;;;7.43;3.15;;;14.70;99.90;;;;;;5047995;28;20029;-48
2021/08/09 00:47:07;;;;;;;3.08;2.28;;;14.60;99.90;;;;;;5048512;28;20024;-47
2021/08/09 00:49:32;;;;;;;4.65;2.80;;;14.60;99.90;;;;;;5048242;28;20402;-45
2021/08/09 00:51:58;;;;;;;5.30;2.30;;;14.60;99.90;;;;;;5049350;28;20094;-48
2021/08/09 00:54:25;;;;;;;6.60;2.65;;;14.50;99.90;;;;;;5051205;28;20048;-49
2021/08/09 00:56:50;;;;;;;5.20;2.20;;;14.50;99.90;;;;;;5051694;28;20029;-46
2021/08/09 00:59:16;;;;;;;5.40;2.88;;;14.50;99.90;;;;;;5051523;28;20120;-49
2021/08/09 01:01:42;;;;;;;7.30;2.80;;;14.50;99.90;;;;;;5051475;28;20020;-48
2021/08/09 01:04:08;;;;;;;6.22;2.55;;;14.50;99.90;;;;;;5049213;28;20055;-46
2021/08/09 01:06:34;;;;;;;7.55;2.45;;;14.60;99.90;;;;;;5051323;28;20561;-48
2021/08/09 01:09:19;;;;;;;4.68;2.50;;;14.50;99.90;;;;;;5051116;28;20017;-46
2021/08/09 01:12:03;;;;;;;6.78;2.83;;;14.50;99.90;;;;;;5051074;28;20112;-46
2021/08/09 01:15:04;;;;;;;5.25;2.88;;;14.50;99.90;;;;;;5049154;28;20021;-46
2021/08/09 01:17:34;;;;;;;6.68;2.60;;;14.50;99.90;;;;;;5027416;28;20045;-46
2021/08/09 01:20:03;;;;;;;4.00;2.75;;;14.40;99.90;;;;;;5051116;28;20033;-46
2021/08/09 01:22:52;;;;;;;11.48;2.97;;;14.40;99.90;;;;;;5049923;28;20525;-46
2021/08/09 01:25:31;;;;;;;7.20;2.65;;;14.40;99.90;;;;;;5050512;28;20036;-47
2021/08/09 01:28:00;;;;;;;4.40;2.70;;;14.40;99.90;;;;;;5050824;28;20021;-49
2021/08/09 01:30:26;;;;;;;3.25;2.40;;;14.50;99.90;;;;;;5051037;28;20415;-47
2021/08/09 01:32:53;;;;;;;3.35;2.13;;;14.50;99.90;;;;;;5050793;28;20049;-49
2021/08/09 01:35:21;;;;;;;4.03;2.58;;;14.50;99.90;;;;;;5050110;28;20082;-46
2021/08/09 01:37:54;;;;;;;4.20;2.63;;;14.50;99.90;;;;;;5050698;28;20025;-46
2021/08/09 01:40:21;;;;;;;4.90;2.58;;;14.50;99.90;;;;;;5050388;28;20391;-46
2021/08/09 01:42:48;;;;;;;3.30;2.60;;;14.50;99.90;;;;;;5050640;28;20390;-48
2021/08/09 01:45:15;;;;;;;4.53;2.67;;;14.50;99.90;;;;;;5049923;28;20159;-46
2021/08/09 01:47:41;;;;;;;7.30;2.90;;;14.50;99.90;;;;;;5050678;28;20387;-48
2021/08/09 01:50:09;;;;;;;7.95;3.22;;;14.60;99.90;;;;;;5049503;28;20075;-47
2021/08/09 01:52:36;;;;;;;7.35;2.63;;;14.60;99.90;;;;;;5050640;28;20035;-47
2021/08/09 01:55:03;;;;;;;7.00;2.85;;;14.60;99.90;;;;;;5049764;28;20028;-48
2021/08/09 01:57:28;;;;;;;8.32;2.78;;;14.60;99.90;;;;;;5050301;28;20112;-48
2021/08/09 01:59:54;;;;;;;4.00;2.40;;;14.60;99.90;;;;;;5050164;28;20109;-48
2021/08/09 02:02:38;;;;;;;6.60;2.95;;;14.60;99.90;;;;;;5050350;28;20478;-46
2021/08/09 02:05:15;;;;;;;4.78;2.50;;;14.70;99.90;;;;;;5048985;28;20199;-48
2021/08/09 02:07:44;;;;;;;4.25;2.50;;;14.70;99.90;;;;;;5050262;28;20045;-45
2021/08/09 02:10:12;;;;;;;4.13;2.53;;;14.80;99.90;;;;;;5050491;28;20032;-46
2021/08/09 02:13:08;;;;;;;3.70;2.17;;;14.80;99.90;;;;;;5050244;28;20128;-47
2021/08/09 02:15:52;;;;;;;3.75;2.47;;;14.80;99.90;;;;;;5049534;28;20029;-47
2021/08/09 02:18:45;;;;;;;4.25;2.22;;;14.80;99.90;;;;;;5049873;28;20032;-46
2021/08/09 02:21:14;;;;;;;3.15;2.15;;;14.80;99.90;;;;;;5049748;28;20067;-52
2021/08/09 02:23:52;;;;;;;7.63;2.40;;;14.80;99.90;;;;;;5049151;28;20036;-46
2021/08/09 02:26:27;;;;;;;4.47;2.30;;;14.90;99.90;;;;;;5049661;28;20025;-47
2021/08/09 02:28:55;;;;;;;5.35;2.58;;;14.90;99.90;;;;;;5049712;28;20021;-46
2021/08/09 02:31:22;;;;;;;4.82;2.53;;;14.90;99.90;;;;;;5049867;28;20225;-46
2021/08/09 02:33:48;;;;;;;3.72;2.33;;;14.90;99.90;;;;;;5049217;28;20483;-46
2021/08/09 02:36:14;;;;;;;4.47;2.53;;;14.90;99.90;;;;;;5049680;28;20555;-45
2021/08/09 02:38:41;;;;;;;5.50;3.33;;;14.90;99.90;;;;;;5049370;28;20131;-46
2021/08/09 02:41:08;;;;;;;3.15;2.50;;;14.90;99.90;;;;;;5049448;28;20104;-47
2021/08/09 02:43:35;;;;;;;3.97;2.40;;;14.90;99.90;;;;;;5048934;28;20025;-49
2021/08/09 02:46:02;;;;;;;6.60;2.35;;;14.80;99.90;;;;;;5049639;28;20025;-46
2021/08/09 02:48:30;;;;;;;4.10;2.72;;;14.80;99.90;;;;;;5049683;28;20349;-47
2021/08/09 02:50:56;;;;;;;5.60;2.70;;;14.80;99.90;;;;;;5049273;28;20025;-47
2021/08/09 02:53:22;;;;;;;3.78;2.25;;;14.80;99.90;;;;;;5048503;28;20048;-48
2021/08/09 02:55:54;;;;;;;3.47;2.33;;;14.80;99.90;;;;;;5049329;28;20134;-46
2021/08/09 02:58:21;;;;;;;3.80;2.30;;;14.70;99.90;;;;;;5049167;28;20025;-47
2021/08/09 03:00:46;;;;;;;6.60;2.55;;;14.70;99.90;;;;;;5049123;28;20039;-45
2021/08/09 03:03:12;;;;;;;7.78;2.47;;;14.70;99.90;;;;;;5048741;28;20021;-46
2021/08/09 03:05:40;;;;;;;6.03;2.67;;;14.70;99.90;;;;;;5048734;28;20021;-45
2021/08/09 03:08:10;;;;;;;4.63;2.50;;;14.70;99.90;;;;;;5048885;28;20099;-49
2021/08/09 03:10:36;;;;;;;4.82;2.45;;;14.70;99.90;;;;;;5048921;28;20052;-46
2021/08/09 03:13:03;;;;;;;3.80;2.13;;;14.70;99.90;;;;;;5048824;28;20109;-47
2021/08/09 03:15:30;;;;;;;5.80;2.70;;;14.70;99.90;;;;;;5048126;28;20087;-48
2021/08/09 03:17:55;;;;;;;5.05;2.53;;;14.70;99.90;;;;;;5048857;28;20256;-48
2021/08/09 03:20:21;;;;;;;5.30;2.78;;;14.70;99.90;;;;;;5047513;28;20372;-46
2021/08/09 03:22:46;;;;;;;5.32;2.65;;;14.60;99.90;;;;;;5049181;28;20036;-45
2021/08/09 03:25:12;;;;;;;6.53;2.78;;;14.60;99.90;;;;;;5048349;28;20507;-45
2021/08/09 03:27:37;;;;;;;6.00;2.72;;;14.60;99.90;;;;;;5048769;28;20285;-47
2021/08/09 03:30:04;;;;;;;4.82;2.42;;;14.60;99.90;;;;;;5048670;28;20044;-46
2021/08/09 03:32:30;;;;;;;6.88;2.50;;;14.60;99.90;;;;;;5048558;28;20102;-47
2021/08/09 03:34:55;;;;;;;7.10;2.95;;;14.60;99.90;;;;;;5047747;28;20025;-49
2021/08/09 03:37:21;;;;;;;5.57;2.10;;;14.60;99.90;;;;;;5048453;28;20094;-46
2021/08/09 03:39:46;;;;;;;5.30;2.33;;;14.60;99.90;;;;;;5048416;28;20037;-46
2021/08/09 03:42:11;;;;;;;6.60;2.67;;;14.60;99.90;;;;;;5048548;28;20092;-45
2021/08/09 03:44:37;;;;;;;6.07;3.20;;;14.60;99.90;;;;;;5047876;28;20017;-45
2021/08/09 03:47:03;;;;;;;6.10;2.33;;;14.60;99.90;;;;;;5048435;28;20021;-46
2021/08/09 03:49:28;;;;;;;5.28;2.63;;;14.60;99.90;;;;;;5048477;28;20116;-46
2021/08/09 03:51:53;;;;;;;6.95;3.13;;;14.60;99.90;;;;;;5048499;28;20116;-45
2021/08/09 03:54:19;;;;;;;6.60;2.85;;;14.60;99.90;;;;;;5047717;28;20372;-49
2021/08/09 03:56:44;;;;;;;5.60;2.88;;;14.60;99.90;;;;;;5048299;28;20064;-46
2021/08/09 03:59:10;;;;;;;5.50;2.63;;;14.70;99.90;;;;;;5048274;28;20037;-45
2021/08/09 04:01:39;;;;;;;10.48;3.42;;;14.60;99.90;;;;;;5046772;28;20394;-46
2021/08/09 04:04:06;;;;;;;7.00;3.22;;;14.60;99.90;;;;;;5047535;28;20072;-45
2021/08/09 04:06:32;;;;;;;7.28;2.80;;;14.60;99.90;;;;;;5048305;28;20057;-46
2021/08/09 04:08:58;;;;;;;6.07;2.88;;;14.70;99.90;;;;;;5048334;28;20386;-45
2021/08/09 04:11:23;;;;;;;6.50;2.47;;;14.60;99.90;;;;;;5048047;28;20033;-45
2021/08/09 04:13:49;;;;;;;9.13;2.70;;;14.60;99.90;;;;;;5047662;28;20617;-46
2021/08/09 04:16:14;;;;;;;4.38;2.70;;;14.60;99.90;;;;;;5046572;28;20040;-46
2021/08/09 04:18:40;;;;;;;6.60;2.83;;;14.60;99.90;;;;;;5048124;28;20027;-46
2021/08/09 04:21:06;;;;;;;5.43;2.50;;;14.60;99.90;;;;;;5048047;28;20031;-49
2021/08/09 04:23:31;;;;;;;6.13;3.10;;;14.60;99.90;;;;;;5047455;28;20060;-47
2021/08/09 04:25:57;;;;;;;4.75;2.83;;;14.60;99.90;;;;;;5046675;28;20458;-45
2021/08/09 04:28:22;;;;;;;5.90;2.55;;;14.60;99.90;;;;;;5051622;28;20188;-45
2021/08/09 04:30:48;;;;;;;4.55;2.53;;;14.60;99.90;;;;;;5051888;28;20029;-50
2021/08/09 04:33:13;;;;;;;5.90;2.83;;;14.60;99.90;;;;;;5051409;28;20045;-48
2021/08/09 04:35:39;;;;;;;4.82;2.75;;;14.60;99.90;;;;;;5051701;28;20536;-48
2021/08/09 04:38:04;;;;;;;6.25;2.88;;;14.60;99.90;;;;;;5052092;28;20203;-46
2021/08/09 04:40:31;;;;;;;5.63;3.22;;;14.60;99.90;;;;;;5051784;28;20458;-45
2021/08/09 04:42:56;;;;;;;8.30;2.90;;;14.60;99.90;;;;;;5051775;28;20075;-46
2021/08/09 04:45:24;;;;;;;6.28;2.95;;;14.60;99.90;;;;;;5051239;28;20426;-46
2021/08/09 04:47:49;;;;;;;6.97;3.17;;;14.70;99.90;;;;;;5051913;28;20021;-46
2021/08/09 04:50:15;;;;;;;6.63;3.20;;;14.70;99.90;;;;;;5051749;28;20390;-45
2021/08/09 04:52:41;;;;;;;5.15;3.20;;;14.70;99.90;;;;;;5050408;28;20035;-45
2021/08/09 04:55:09;;;;;;;12.75;2.97;;;14.80;99.90;;;;;;5051184;28;20108;-48
2021/08/09 04:57:34;;;;;;;3.70;2.63;;;14.80;99.90;;;;;;5051250;28;20491;-45
2021/08/09 05:00:00;;;;;;;6.45;2.50;;;14.80;99.90;;;;;;5051358;28;20044;-48
2021/08/09 05:02:25;;;;;;;6.20;1.92;;;14.90;99.90;;;;;;5049898;28;20056;-45
2021/08/09 05:04:51;;;;;;;4.85;2.40;;;14.90;99.90;;;;;;5050773;28;20244;-45
2021/08/09 05:07:16;;;;;;;4.25;2.78;;;15.00;99.90;;;;;;5051319;28;20021;-48
2021/08/09 05:09:42;;;;;;;5.53;2.55;;;15.00;99.90;;;;;;5051246;28;20379;-47
2021/08/09 05:12:07;;;;;;;4.25;2.42;;;15.00;99.90;;;;;;5051039;28;20025;-46
2021/08/09 05:14:34;;;;;;;6.13;2.70;;;15.00;99.90;;;;;;5050558;28;20035;-46
2021/08/09 05:16:59;;;;;;;9.20;3.03;;;15.00;99.90;;;;;;5051088;28;20032;-46
2021/08/09 05:19:25;;;;;;;5.20;2.30;;;15.10;99.90;;;;;;5050998;28;20446;-45
2021/08/09 05:21:50;;;;;;;3.88;2.33;;;15.10;99.90;;;;;;5050974;28;20021;-47
2021/08/09 05:24:16;;;;;;;4.93;2.30;;;15.10;99.90;;;;;;5049208;28;20232;-45
2021/08/09 05:26:41;;;;;;;9.30;2.75;;;15.20;99.90;;;;;;5051130;28;20107;-46
2021/08/09 05:29:07;;;;;;;5.85;2.53;;;15.20;99.90;;;;;;5051137;28;20025;-45
2021/08/09 05:31:33;;;;;;;3.45;2.28;;;15.20;99.90;;;;;;5049734;28;20033;-48
2021/08/09 05:34:00;;;;;;;8.77;2.58;;;15.20;99.90;;;;;;5050512;28;20061;-45
2021/08/09 05:36:25;;;;;;;7.13;2.92;;;15.30;99.90;;;;;;5049582;28;20047;-46
2021/08/09 05:38:51;;;;;;;5.25;2.50;;;15.30;99.90;;;;;;5048470;28;20554;-46
2021/08/09 05:41:17;;;;;;;6.47;2.47;;;15.30;99.90;;;;;;5050835;28;20088;-49
2021/08/09 05:43:42;;;;;;;7.70;2.50;;;15.40;99.90;;;;;;5050030;28;20545;-45
2021/08/09 05:46:08;;;;;;;4.03;2.85;;;15.40;99.90;;;;;;5049166;28;20025;-45
2021/08/09 05:48:34;;;;;;;8.77;2.65;;;15.40;99.90;;;;;;5050535;28;20024;-45
2021/08/09 05:50:59;;;;;;;5.38;2.45;;;15.40;99.90;;;;;;5050546;28;20036;-46
2021/08/09 05:53:27;;;;;;;6.32;2.70;;;15.50;99.90;;;;;;5048489;28;20390;-45
2021/08/09 05:55:54;;;;;;;6.45;2.15;;;15.60;99.90;;;;;;5050264;28;20036;-48
2021/08/09 05:58:20;;;;;;;7.03;2.80;;;15.60;99.90;;;;;;5049010;28;20390;-46
2021/08/09 06:00:46;;;;;;;3.10;2.40;;;15.70;99.90;;;;;;5050079;28;20112;-45
2021/08/09 06:03:13;;;;;;;5.88;2.67;;;15.70;99.90;;;;;;5048531;28;20025;-45
2021/08/09 06:05:41;;;;;;;4.47;2.22;;;15.80;99.90;;;;;;5049998;28;20486;-46
2021/08/09 06:08:07;;;;;;;5.70;2.50;;;15.80;99.90;;;;;;5050196;28;20028;-47
2021/08/09 06:10:32;;;;;;;3.72;2.17;;;15.90;99.90;;;;;;5050175;28;20074;-48
2021/08/09 06:12:58;;;;;;;6.05;2.38;;;15.90;99.90;;;;;;5050276;28;20114;-46
2021/08/09 06:15:23;;;;;;;8.65;2.78;;;16.10;99.90;;;;;;5048958;28;20036;-46
2021/08/09 06:17:49;;;;;;;4.18;2.05;;;16.10;99.90;;;;;;5050044;28;20046;-46
2021/08/09 06:20:15;;;;;;;4.25;2.45;;;16.20;99.90;;;;;;5049890;28;20029;-47
2021/08/09 06:22:40;;;;;;;4.57;2.55;;;16.30;99.90;;;;;;5049856;28;20526;-45
2021/08/09 06:25:06;;;;;;;3.90;2.13;;;16.40;99.90;;;;;;5047908;28;20116;-48
2021/08/09 06:27:31;;;;;;;5.22;2.38;;;16.40;99.90;;;;;;5049905;28;20036;-46
2021/08/09 06:29:57;;;;;;;4.35;2.33;;;16.50;99.90;;;;;;5049761;28;20036;-47
2021/08/09 06:32:24;;;;;;;5.45;2.40;;;16.70;99.90;;;;;;5050213;28;20036;-45
2021/08/09 06:34:49;;;;;;;6.22;2.38;;;16.80;99.90;;;;;;5049499;28;20263;-47
2021/08/09 06:37:16;;;;;;;6.30;2.33;;;16.90;99.90;;;;;;5048394;28;20490;-46
2021/08/09 06:39:41;;;;;;;4.05;2.30;;;17.10;99.90;;;;;;5049445;28;20517;-47
2021/08/09 06:42:08;;;;;;;6.05;2.90;;;17.20;99.90;;;;;;5049420;28;20172;-46
2021/08/09 06:44:33;;;;;;;4.47;2.47;;;17.10;99.90;;;;;;5048545;28;20111;-46
2021/08/09 06:47:00;;;;;;;3.95;2.30;;;17.20;99.90;;;;;;5049347;28;20419;-47
2021/08/09 06:49:26;;;;;;;7.00;2.90;;;17.30;99.90;;;;;;5049326;28;20036;-46
2021/08/09 06:51:51;;;;;;;9.23;3.35;;;17.30;99.90;;;;;;5049158;28;20036;-46
2021/08/09 06:54:20;;;;;;;5.55;2.58;;;17.30;99.90;;;;;;5048477;28;20474;-46
2021/08/09 06:56:46;;;;;;;3.67;2.38;;;17.50;99.90;;;;;;5047745;28;20256;-46
2021/08/09 06:59:11;;;;;;;8.30;2.85;;;17.50;99.90;;;;;;5049099;28;20035;-46
2021/08/09 07:01:37;;;;;;;4.95;2.58;;;17.60;99.90;;;;;;5049049;28;20356;-46
2021/08/09 07:04:03;;;;;;;3.10;2.00;;;17.70;99.90;;;;;;5048774;28;20391;-46
2021/08/09 07:06:29;;;;;;;5.68;2.47;;;17.90;99.90;;;;;;5049263;28;20033;-46
2021/08/09 07:08:54;;;;;;;4.70;2.45;;;18.00;99.90;;;;;;5048032;28;20028;-46
2021/08/09 07:11:21;;;;;;;5.97;2.40;;;18.20;99.90;;;;;;5049113;28;20025;-46
2021/08/09 07:13:47;;;;;;;8.20;2.78;;;18.30;99.90;;;;;;5048393;28;20474;-47
2021/08/09 07:16:13;;;;;;;4.20;2.40;;;18.30;99.90;;;;;;5049061;28;20024;-47
2021/08/09 07:18:39;;;;;;;7.28;3.08;;;18.40;99.90;;;;;;5047551;28;20024;-47
2021/08/09 07:21:08;;;;;;;7.57;2.72;;;18.50;99.90;;;;;;5048740;28;20490;-47
2021/08/09 07:23:33;;;;;;;6.40;2.38;;;18.50;99.90;;;;;;5048027;28;20075;-46
2021/08/09 07:25:59;;;;;;;5.57;2.30;;;18.70;99.90;;;;;;5048660;28;20028;-46
2021/08/09 07:28:25;;;;;;;7.40;2.60;;;18.90;99.90;;;;;;5048550;28;20453;-47
2021/08/09 07:30:50;;;;;;;5.47;2.80;;;19.00;99.90;;;;;;5048615;28;20054;-46
2021/08/09 07:33:16;;;;;;;5.47;2.28;;;19.00;99.90;;;;;;5048220;28;20414;-47
2021/08/09 07:35:41;;;;;;;6.72;2.88;;;19.20;99.90;;;;;;5048423;28;20029;-47
2021/08/09 07:38:07;;;;;;;5.05;2.42;;;19.40;99.90;;;;;;5048507;28;20029;-47
2021/08/09 07:40:32;;;;;;;3.22;2.17;;;19.60;99.90;;;;;;5048821;28;20036;-46
2021/08/09 07:42:58;;;;;;;4.03;2.47;;;19.70;99.90;;;;;;5048365;28;20476;-47
2021/08/09 07:45:23;;;;;;;7.55;2.25;;;19.60;99.90;;;;;;5047962;28;20051;-46
2021/08/09 07:47:52;;;;;;;4.63;2.72;;;19.60;99.90;;;;;;5048719;28;20112;-47
2021/08/09 07:50:19;;;;;;;7.18;2.78;;;19.80;99.90;;;;;;5048809;28;20025;-47
2021/08/09 07:52:45;;;;;;;6.53;2.85;;;19.80;99.90;;;;;;5048659;28;20267;-47
2021/08/09 07:55:10;;;;;;;5.57;2.97;;;20.00;99.90;;;;;;5047953;28;20549;-47
2021/08/09 07:57:36;;;;;;;9.02;2.22;;;20.20;99.40;;;;;;5048346;28;20039;-47
2021/08/09 08:00:01;;;;;;;6.50;2.90;;;20.10;98.80;;;;;;5048545;28;20147;-47
2021/08/09 08:02:27;;;;;;;6.55;2.50;;;20.00;99.00;;;;;;5050764;28;20052;-47
2021/08/09 08:04:53;;;;;;;5.13;2.72;;;20.10;99.50;;;;;;5051849;28;20100;-46
2021/08/09 08:07:18;;;;;;;6.05;2.40;;;20.20;99.60;;;;;;5052855;28;20179;-48
2021/08/09 08:09:44;;;;;;;5.38;2.90;;;20.40;98.50;;;;;;5052356;28;20031;-49
2021/08/09 08:12:10;;;;;;;3.85;2.20;;;20.50;99.20;;;;;;5052147;28;20072;-49
2021/08/09 08:14:35;;;;;;;7.00;2.40;;;20.70;98.70;;;;;;5051815;28;20025;-48
2021/08/09 08:17:01;;;;;;;3.83;2.13;;;21.00;97.20;;;;;;5052302;28;20025;-48
2021/08/09 08:19:26;;;;;;;5.63;2.20;;;21.20;96.30;;;;;;5051032;28;20021;-47
2021/08/09 08:21:52;;;;;;;7.53;2.40;;;21.50;95.50;;;;;;5052020;28;20040;-47
2021/08/09 08:24:17;;;;;;;7.85;2.80;;;21.80;95.50;;;;;;5051413;28;20116;-47
2021/08/09 08:26:43;;;;;;;9.98;2.42;;;21.90;94.10;;;;;;5051846;28;20039;-48
2021/08/09 08:29:08;;;;;;;4.57;2.10;;;22.20;93.60;;;;;;5052017;28;20099;-46
2021/08/09 08:31:34;;;;;;;4.13;2.05;;;22.50;93.70;;;;;;5051999;28;20090;-47
2021/08/09 08:34:00;;;;;;;4.22;2.42;;;23.40;91.80;;;;;;5051223;28;20479;-49
2021/08/09 08:36:26;;;;;;;8.40;2.45;;;24.40;89.90;;;;;;5051865;28;20447;-47
2021/08/09 08:38:51;;;;;;;6.38;2.58;;;24.30;86.50;;;;;;5050645;28;20056;-49
2021/08/09 08:41:17;;;;;;;4.82;2.05;;;24.20;86.50;;;;;;5051649;28;20045;-47
2021/08/09 08:43:43;;;;;;;3.92;2.10;;;23.50;86.10;;;;;;5051492;28;20031;-48
2021/08/09 08:46:09;;;;;;;8.18;2.25;;;22.40;89.20;;;;;;5051620;28;20021;-49
2021/08/09 08:48:37;;;;;;;5.82;2.58;;;22.40;90.90;;;;;;5051581;28;20028;-48
2021/08/09 08:51:03;;;;;;;5.53;3.00;;;22.00;90.50;;;;;;5051993;28;20021;-46
2021/08/09 08:53:33;;;;;;;4.53;2.47;;;22.10;90.30;;;;;;5049887;28;20029;-48
2021/08/09 08:56:03;;;;;;;10.30;4.03;;;22.70;90.00;;;;;;5051738;28;20052;-49
2021/08/09 08:58:28;;;;;;;6.72;2.80;;;23.50;90.00;;;;;;5051826;28;20279;-49
2021/08/09 09:00:54;;;;;;;6.95;2.88;;;24.10;85.80;;;;;;5051452;28;20129;-49
2021/08/09 09:03:22;;;;;;;6.55;2.70;;;23.70;85.90;;;;;;5050798;28;20275;-48
2021/08/09 09:06:07;;;;;;;6.05;2.45;;;24.20;84.50;;;;;;5051537;28;20398;-47
2021/08/09 09:08:48;;;;;;;5.35;2.92;;;23.30;84.60;;;;;;5051256;28;20053;-48
2021/08/09 09:11:23;;;;;;;8.27;2.95;;;23.40;86.10;;;;;;5051327;28;20037;-49
2021/08/09 09:13:57;;;;;;;5.57;2.40;;;23.70;85.40;;;;;;5050284;28;20480;-47
2021/08/09 09:16:24;;;;;;;5.05;2.00;;;23.90;83.50;;;;;;5049531;28;20576;-47
2021/08/09 09:18:56;;;;;;;6.50;2.50;;;24.90;84.50;;;;;;5049767;28;20063;-49
2021/08/09 09:21:34;;;;;;;5.75;1.95;;;25.90;78.50;;;;;;5051072;28;20024;-47
2021/08/09 09:24:26;;;;;;;7.53;2.83;;;26.10;76.60;;;;;;5050466;28;20023;-50
2021/08/09 09:27:03;;;;;;;3.58;1.95;;;25.90;74.80;;;;;;5049239;28;20272;-48
2021/08/09 09:29:42;;;;;;;4.97;2.20;;;25.40;75.70;;;;;;5050809;28;20025;-49
2021/08/09 09:32:19;;;;;;;2.97;1.80;;;25.00;76.90;;;;;;5050983;28;20033;-48
2021/08/09 09:35:02;;;;;;;5.40;1.85;;;24.50;78.90;;;;;;5050091;28;20482;-47
2021/08/09 09:37:35;;;;;;;6.60;2.17;;;24.10;78.70;;;;;;5049186;28;20036;-46
2021/08/09 09:40:16;;;;;;;4.88;1.83;;;23.90;80.20;;;;;;5050763;28;20139;-47
2021/08/09 09:42:41;;;;;;;;;;;23.80;79.50;;;;;;5051355;28;20112;-45
2021/08/09 09:45:26;;;;;;;5.53;1.95;;;23.20;79.50;;;;;;5050463;28;20349;-47
2021/08/09 09:48:10;;;;;;;3.33;2.22;;;23.10;81.30;;;;;;5049285;28;20025;-46
2021/08/09 09:50:41;;;;;;;3.05;1.80;;;22.70;82.00;;;;;;5050949;28;20025;-49
2021/08/09 09:53:21;;;;;;;4.72;1.85;;;23.00;83.00;;;;;;5050633;28;20083;-46
2021/08/09 09:55:49;;;;;;;6.53;1.73;;;22.80;81.60;;;;;;5050533;28;20286;-48
2021/08/09 09:58:18;;;;;;;7.10;2.10;;;22.40;84.00;;;;;;5050313;28;20052;-49
2021/08/09 10:00:44;;;;;;;5.25;1.73;;;22.40;84.70;;;;;;5050436;28;20029;-46
2021/08/09 10:03:10;;;;;;;5.57;1.73;;;22.30;85.30;;;;;;5050187;28;20028;-46
2021/08/09 10:05:39;;;;;;;6.85;2.08;;;22.20;84.60;;;;;;5049774;28;20017;-47
2021/08/09 10:08:08;;;;;;;5.88;1.95;;;22.20;87.10;;;;;;5050086;28;20028;-47
2021/08/09 10:10:34;;;;;;;3.53;1.90;;;22.10;87.20;;;;;;5050190;28;20040;-48
2021/08/09 10:13:00;;;;;;;5.40;1.98;;;22.00;86.40;;;;;;5050131;28;20736;-47
2021/08/09 10:15:27;;;;;;;4.03;1.83;;;22.00;87.00;;;;;;5048270;28;20031;-46
2021/08/09 10:17:54;;;;;;;5.53;2.40;;;22.00;85.70;;;;;;5050208;28;20033;-46
2021/08/09 10:20:23;;;;;;;2.97;1.80;;;22.20;85.80;;;;;;5050125;28;20110;-47
2021/08/09 10:23:00;;;;;;;7.25;2.05;;;22.30;87.80;;;;;;5048798;28;20032;-46
2021/08/09 10:25:49;;;;;;;3.45;1.85;;;22.50;84.20;;;;;;5048515;28;20110;-47
2021/08/09 10:28:15;;;;;;;3.42;1.70;;;22.70;86.80;;;;;;5049796;28;20036;-49
2021/08/09 10:30:41;;;;;;;6.13;2.75;;;23.00;85.90;;;;;;5049837;28;20583;-47
2021/08/09 10:33:10;;;;;;;5.68;2.33;;;23.00;84.30;;;;;;5049642;28;20055;-48
2021/08/09 10:35:38;;;;;;;4.63;2.47;;;23.00;84.20;;;;;;5049300;28;20021;-47
2021/08/09 10:38:34;;;;;;;4.97;2.00;;;23.00;85.20;;;;;;5049476;28;20029;-47
2021/08/09 10:41:08;;;;;;;4.82;1.98;;;22.80;85.00;;;;;;5048631;28;20546;-46
2021/08/09 10:44:09;;;;;;;6.78;2.50;;;22.80;85.80;;;;;;5049063;28;20514;-46
2021/08/09 10:46:45;;;;;;;3.15;1.83;;;22.70;86.50;;;;;;5048144;28;20496;-46
2021/08/09 10:49:39;;;;;;;4.25;2.08;;;22.70;86.50;;;;;;5049544;28;20398;-46
2021/08/09 10:52:07;;;;;;;3.42;1.88;;;22.60;86.40;;;;;;5049356;28;20388;-46
2021/08/09 10:54:35;;;;;;;4.70;2.30;;;22.50;86.70;;;;;;5048750;28;20045;-49
2021/08/09 10:57:02;;;;;;;5.45;2.17;;;22.30;86.10;;;;;;5049406;28;20017;-46
2021/08/09 10:59:37;;;;;;;4.13;1.90;;;22.10;87.20;;;;;;5047785;28;20059;-46
2021/08/09 11:02:03;;;;;;;6.57;1.90;;;22.00;88.30;;;;;;5048926;28;20443;-47
2021/08/09 11:04:29;;;;;;;3.30;1.88;;;21.90;89.20;;;;;;5048214;28;20087;-47
2021/08/09 11:06:55;;;;;;;6.78;2.72;;;22.00;90.00;;;;;;5049243;28;20359;-47
2021/08/09 11:09:29;;;;;;;2.60;1.95;;;22.00;87.30;;;;;;5049055;28;20183;-47
2021/08/09 11:12:10;;;;;;;5.03;2.65;;;21.80;89.40;;;;;;5048888;28;20067;-50
2021/08/09 11:15:01;;;;;;;8.50;2.75;;;21.90;89.30;;;;;;5048201;28;20052;-49
2021/08/09 11:17:44;;;;;;;5.50;2.28;;;21.90;88.60;;;;;;5048888;28;20260;-50
2021/08/09 11:20:11;;;;;;;5.07;2.03;;;22.00;87.50;;;;;;5048586;28;20040;-46
2021/08/09 11:22:37;;;;;;;8.43;2.03;;;22.00;87.60;;;;;;5048755;28;20541;-48
2021/08/09 11:25:03;;;;;;;3.15;2.00;;;22.00;88.00;;;;;;5048148;28;20020;-47
2021/08/09 11:27:29;;;;;;;4.63;2.47;;;21.90;88.30;;;;;;5047453;28;20132;-48
2021/08/09 11:29:56;;;;;;;3.47;1.98;;;21.90;89.00;;;;;;5048620;28;20029;-46
2021/08/09 11:32:42;;;;;;;6.40;2.20;;;21.80;88.80;;;;;;5048629;28;20021;-49
2021/08/09 11:35:09;;;;;;;6.80;2.60;;;21.90;89.40;;;;;;5047989;28;20102;-48
2021/08/09 11:37:55;;;;;;;5.00;2.42;;;22.00;88.50;;;;;;5048705;28;20036;-47
2021/08/09 11:40:33;;;;;;;4.03;2.10;;;22.00;88.90;;;;;;5048248;28;20031;-48
2021/08/09 11:42:59;;;;;;;7.28;2.55;;;22.00;89.70;;;;;;5048449;28;20028;-47
2021/08/09 11:45:25;;;;;;;4.75;2.28;;;22.10;88.50;;;;;;5047979;28;20025;-46
2021/08/09 11:47:51;;;;;;;3.10;2.08;;;22.20;88.10;;;;;;5048350;28;20025;-47
2021/08/09 11:50:18;;;;;;;4.00;2.00;;;23.50;87.30;;;;;;5048287;28;20025;-49
2021/08/09 11:52:44;;;;;;;5.22;2.25;;;24.60;84.50;;;;;;5048386;28;20032;-47
2021/08/09 11:55:10;;;;;;;5.57;2.35;;;25.60;80.10;;;;;;5047718;28;20108;-47
2021/08/09 11:57:39;;;;;;;6.93;2.38;;;26.60;77.60;;;;;;5048380;28;20116;-47
2021/08/09 12:00:07;;;;;;;3.93;2.30;;;26.90;73.20;;;;;;5048237;28;20032;-50
2021/08/09 12:02:32;;;;;;;2.78;1.80;;;27.80;72.50;;;;;;5048468;28;20025;-50
2021/08/09 12:04:58;;;;;;;4.10;2.20;;;28.00;72.10;;;;;;5047733;28;20029;-47
2021/08/09 12:07:24;;;;;;;6.35;2.67;;;28.50;72.60;;;;;;5048765;28;20029;-50
2021/08/09 12:09:50;;;;;;;3.95;2.15;;;28.50;66.90;;;;;;5048700;28;20112;-47
2021/08/09 12:12:17;;;;;;;4.35;1.67;;;29.00;66.30;;;;;;5048398;28;20461;-51
2021/08/09 12:14:44;;;;;;;8.82;1.80;;;28.50;64.80;;;;;;5047854;28;20108;-49
2021/08/09 12:17:17;;;;;;;6.53;1.90;;;28.40;64.50;;;;;;5048300;28;20044;-48
2021/08/09 12:19:53;;;;;;;8.07;2.10;;;28.00;66.00;;;;;;5048669;28;20029;-47
2021/08/09 12:22:29;;;;;;;5.47;2.10;;;28.20;65.10;;;;;;5048297;28;20219;-48
2021/08/09 12:25:00;;;;;;;6.10;2.20;;;27.80;66.30;;;;;;5047514;28;20445;-48
2021/08/09 12:27:27;;;;;;;5.47;2.08;;;27.30;66.30;;;;;;5048176;28;20475;-48
2021/08/09 12:30:18;;;;;;;2.75;1.75;;;27.00;65.60;;;;;;5048265;28;20021;-48
2021/08/09 12:33:04;;;;;;;4.60;2.25;;;26.60;66.50;;;;;;5046184;28;20044;-46
2021/08/09 12:35:32;;;;;;;4.25;1.80;;;26.10;67.50;;;;;;5047686;28;20493;-47
2021/08/09 12:37:57;;;;;;;5.43;2.08;;;26.70;67.60;;;;;;5048108;28;20470;-46
2021/08/09 12:40:23;;;;;;;4.70;2.13;;;26.50;67.00;;;;;;5048103;28;20021;-46
2021/08/09 12:43:10;;;;;;;10.20;1.98;;;26.50;65.80;;;;;;5047993;28;20108;-47
2021/08/09 12:45:37;;;;;;;4.07;1.92;;;26.80;65.40;;;;;;5046197;28;20025;-46
2021/08/09 12:48:04;;;;;;;5.50;2.13;;;27.00;68.20;;;;;;5049416;28;20394;-48
2021/08/09 12:50:30;;;;;;;3.60;1.70;;;26.70;65.90;;;;;;5051694;28;20033;-47
2021/08/09 12:52:56;;;;;;;7.18;1.77;;;26.40;66.70;;;;;;5051692;28;20017;-46
2021/08/09 12:55:21;;;;;;;3.60;1.48;;;26.10;65.50;;;;;;5050959;28;20028;-47